createdAt,value
2019-05-22T00:00:41.160Z,12.88
2019-05-22T00:03:12.727Z,12.91
2019-05-22T00:05:44.959Z,12.89
2019-05-22T00:08:17.539Z,12.88
2019-05-22T00:10:49.517Z,12.85
2019-05-22T00:13:22.782Z,12.87
2019-05-22T00:15:54.765Z,12.85
2019-05-22T00:18:25.704Z,12.84
2019-05-22T00:20:57.550Z,12.78
2019-05-22T00:23:28.514Z,12.79
2019-05-22T00:25:58.481Z,12.79
2019-05-22T00:28:30.381Z,12.80
2019-05-22T00:31:01.352Z,12.81
2019-05-22T00:33:34.475Z,12.83
2019-05-22T00:36:04.660Z,12.86
2019-05-22T00:38:36.184Z,12.85
2019-05-22T00:41:07.631Z,12.86
2019-05-22T00:43:42.390Z,12.87
2019-05-22T00:46:16.853Z,12.88
2019-05-22T00:48:47.764Z,12.86
2019-05-22T00:51:47.520Z,12.86
2019-05-22T00:54:34.834Z,12.86
2019-05-22T00:57:34.868Z,12.88
2019-05-22T01:00:21.565Z,12.93
2019-05-22T01:02:54.348Z,12.91
2019-05-22T01:05:24.693Z,12.88
2019-05-22T01:07:56.782Z,12.85
2019-05-22T01:10:29.581Z,12.80
2019-05-22T01:13:02.918Z,12.80
2019-05-22T01:15:35.064Z,12.80
2019-05-22T01:18:08.311Z,12.80
2019-05-22T01:20:42.004Z,12.81
2019-05-22T01:23:17.929Z,12.82
2019-05-22T01:25:48.203Z,12.84
2019-05-22T01:28:19.603Z,12.82
2019-05-22T01:31:00.808Z,12.82
2019-05-22T01:33:39.245Z,12.78
2019-05-22T01:36:30.140Z,12.77
2019-05-22T01:39:25.974Z,12.79
2019-05-22T01:42:00.776Z,12.80
2019-05-22T01:44:31.700Z,12.77
2019-05-22T01:47:06.887Z,12.77
2019-05-22T01:49:43.162Z,12.77
2019-05-22T01:52:13.295Z,12.75
2019-05-22T01:54:45.247Z,12.75
2019-05-22T01:57:18.058Z,12.74
2019-05-22T01:59:48.318Z,12.72
2019-05-22T02:02:19.207Z,12.67
2019-05-22T02:04:49.157Z,12.62
2019-05-22T02:07:20.693Z,12.57
2019-05-22T02:09:52.263Z,12.54
2019-05-22T02:12:41.120Z,12.50
2019-05-22T02:15:12.759Z,12.50
2019-05-22T02:17:44.751Z,12.46
2019-05-22T02:20:16.142Z,12.47
2019-05-22T02:22:48.155Z,12.47
2019-05-22T02:25:18.986Z,12.46
2019-05-22T02:27:50.519Z,12.44
2019-05-22T02:30:23.185Z,12.43
2019-05-22T02:32:55.199Z,12.45
2019-05-22T02:35:24.719Z,12.41
2019-05-22T02:37:55.631Z,12.38
2019-05-22T02:40:27.150Z,12.32
2019-05-22T02:42:56.214Z,12.27
2019-05-22T02:45:25.350Z,12.29
2019-05-22T02:47:55.726Z,12.27
2019-05-22T02:50:25.641Z,12.28
2019-05-22T02:52:55.447Z,12.28
2019-05-22T02:55:27.391Z,12.29
2019-05-22T02:57:57.555Z,12.31
2019-05-22T03:00:31.116Z,12.36
2019-05-22T03:03:03.071Z,12.37
2019-05-22T03:05:33.592Z,12.39
2019-05-22T03:08:04.145Z,12.41
2019-05-22T03:10:34.572Z,12.42
2019-05-22T03:13:06.201Z,12.36
2019-05-22T03:15:36.563Z,12.27
2019-05-22T03:18:08.591Z,12.19
2019-05-22T03:20:42.000Z,12.16
2019-05-22T03:23:39.049Z,12.12
2019-05-22T03:26:10.961Z,12.12
2019-05-22T03:28:41.907Z,12.13
2019-05-22T03:31:13.637Z,12.12
2019-05-22T03:33:44.204Z,12.12
2019-05-22T03:36:20.820Z,12.11
2019-05-22T03:38:51.713Z,12.15
2019-05-22T03:41:21.626Z,12.17
2019-05-22T03:43:53.270Z,12.16
2019-05-22T03:46:37.056Z,12.15
2019-05-22T03:49:07.946Z,12.13
2019-05-22T03:51:37.250Z,12.11
2019-05-22T03:54:06.464Z,12.08
2019-05-22T03:56:54.328Z,12.08
2019-05-22T03:59:23.160Z,12.07
2019-05-22T04:01:52.390Z,12.07
2019-05-22T04:04:40.332Z,12.05
2019-05-22T04:07:13.904Z,12.00
2019-05-22T04:09:42.745Z,12.00
2019-05-22T04:12:13.161Z,12.00
2019-05-22T04:14:42.269Z,11.97
2019-05-22T04:17:13.255Z,11.96
2019-05-22T04:19:49.226Z,11.97
2019-05-22T04:22:14.144Z,11.96
2019-05-22T04:24:44.396Z,12.00
2019-05-22T04:27:13.717Z,12.03
2019-05-22T04:29:42.693Z,12.03
2019-05-22T04:32:22.742Z,12.03
2019-05-22T04:34:53.026Z,12.04
2019-05-22T04:37:22.455Z,12.04
2019-05-22T04:39:54.863Z,12.02
2019-05-22T04:42:27.036Z,12.03
2019-05-22T04:45:09.966Z,12.03
2019-05-22T04:47:39.913Z,12.02
2019-05-22T04:50:10.341Z,12.06
2019-05-22T04:52:39.542Z,12.06
2019-05-22T04:55:11.184Z,12.06
2019-05-22T04:57:41.033Z,12.05
2019-05-22T05:00:11.515Z,12.03
2019-05-22T05:02:40.577Z,12.04
2019-05-22T05:05:11.658Z,12.00
2019-05-22T05:07:41.681Z,12.01
2019-05-22T05:10:10.724Z,12.02
2019-05-22T05:12:41.677Z,12.03
2019-05-22T05:15:11.124Z,12.05
2019-05-22T05:17:40.025Z,12.06
2019-05-22T05:20:21.713Z,12.09
2019-05-22T05:22:41.833Z,12.08
2019-05-22T05:25:11.745Z,12.09
2019-05-22T05:27:40.781Z,12.08
2019-05-22T05:30:10.626Z,12.06
2019-05-22T05:32:40.455Z,12.09
2019-05-22T05:35:10.317Z,12.10
2019-05-22T05:37:39.549Z,12.08
2019-05-22T05:40:28.888Z,12.08
2019-05-22T05:42:58.225Z,12.05
2019-05-22T05:45:27.395Z,12.01
2019-05-22T05:47:57.166Z,12.02
2019-05-22T05:50:39.014Z,12.02
2019-05-22T05:52:58.098Z,12.03
2019-05-22T05:55:30.138Z,12.00
2019-05-22T05:58:27.552Z,11.98
2019-05-22T06:00:59.717Z,12.04
2019-05-22T06:03:29.650Z,12.10
2019-05-22T06:05:58.878Z,12.11
2019-05-22T06:08:27.741Z,12.10
2019-05-22T06:11:14.726Z,12.12
2019-05-22T06:13:43.590Z,12.13
2019-05-22T06:16:32.733Z,12.08
2019-05-22T06:19:01.799Z,12.03
2019-05-22T06:21:32.111Z,12.02
2019-05-22T06:24:21.030Z,12.00
2019-05-22T06:27:25.158Z,12.02
2019-05-22T06:29:59.163Z,12.04
2019-05-22T06:32:54.632Z,12.04
2019-05-22T06:35:24.850Z,12.02
2019-05-22T06:38:05.053Z,12.04
2019-05-22T06:40:35.933Z,12.05
2019-05-22T06:43:23.774Z,12.07
2019-05-22T06:45:53.056Z,12.12
2019-05-22T06:48:22.149Z,12.16
2019-05-22T06:50:51.606Z,12.15
2019-05-22T06:53:20.769Z,12.15
2019-05-22T06:55:50.260Z,12.16
2019-05-22T06:58:19.551Z,12.16
2019-05-22T07:00:48.916Z,12.19
2019-05-22T07:03:19.457Z,12.22
2019-05-22T07:05:50.115Z,12.21
2019-05-22T07:08:20.083Z,12.23
2019-05-22T07:10:48.884Z,12.30
2019-05-22T07:13:19.709Z,12.35
2019-05-22T07:15:52.134Z,12.40
2019-05-22T07:18:26.338Z,12.44
2019-05-22T07:20:57.940Z,12.44
2019-05-22T07:23:32.882Z,12.42
2019-05-22T07:26:03.236Z,12.43
2019-05-22T07:28:33.701Z,12.50
2019-05-22T07:31:04.332Z,12.55
2019-05-22T07:33:35.105Z,12.59
2019-05-22T07:36:09.998Z,12.66
2019-05-22T07:38:37.022Z,12.72
2019-05-22T07:41:08.252Z,12.76
2019-05-22T07:43:41.559Z,12.79
2019-05-22T07:46:09.907Z,12.83
2019-05-22T07:48:41.452Z,12.86
2019-05-22T07:51:12.454Z,12.88
2019-05-22T07:53:42.918Z,12.89
2019-05-22T07:56:15.060Z,12.94
2019-05-22T07:58:45.401Z,12.96
2019-05-22T08:01:17.279Z,13.01
2019-05-22T08:03:49.319Z,13.04
2019-05-22T08:06:19.952Z,13.06
2019-05-22T08:08:52.390Z,13.07
2019-05-22T08:11:25.114Z,13.10
2019-05-22T08:13:57.060Z,13.13
2019-05-22T08:16:29.205Z,13.14
2019-05-22T08:18:59.220Z,13.12
2019-05-22T08:21:30.062Z,13.09
2019-05-22T08:24:00.588Z,13.06
2019-05-22T08:26:32.258Z,13.02
2019-05-22T08:29:02.802Z,12.99
2019-05-22T08:31:33.726Z,12.96
2019-05-22T08:34:05.260Z,12.96
2019-05-22T08:36:38.634Z,12.98
2019-05-22T08:39:09.923Z,13.03
2019-05-22T08:41:42.735Z,13.06
2019-05-22T08:44:16.704Z,13.13
2019-05-22T08:46:46.171Z,13.18
2019-05-22T08:49:17.161Z,13.26
2019-05-22T08:51:47.093Z,13.30
2019-05-22T08:54:17.935Z,13.31
2019-05-22T08:56:51.337Z,13.31
2019-05-22T08:59:21.958Z,13.35
2019-05-22T09:01:52.024Z,13.38
2019-05-22T09:04:22.573Z,13.40
2019-05-22T09:06:52.786Z,13.43
2019-05-22T09:09:23.644Z,13.45
2019-05-22T09:11:53.695Z,13.48
2019-05-22T09:14:24.173Z,13.55
2019-05-22T09:16:54.538Z,13.61
2019-05-22T09:19:24.650Z,13.63
2019-05-22T09:21:55.169Z,13.67
2019-05-22T09:24:25.808Z,13.67
2019-05-22T09:26:55.730Z,13.69
2019-05-22T09:29:25.760Z,13.70
2019-05-22T09:31:55.883Z,13.74
2019-05-22T09:34:26.613Z,13.79
2019-05-22T09:36:56.550Z,13.86
2019-05-22T09:39:26.509Z,13.92
2019-05-22T09:41:56.815Z,13.99
2019-05-22T09:44:26.857Z,13.99
2019-05-22T09:46:56.971Z,14.02
2019-05-22T09:49:27.542Z,14.06
2019-05-22T09:51:57.856Z,14.09
2019-05-22T09:54:28.736Z,14.14
2019-05-22T09:56:58.905Z,14.20
2019-05-22T09:59:29.158Z,14.19
2019-05-22T10:01:59.071Z,14.17
2019-05-22T10:04:30.571Z,14.16
2019-05-22T10:07:00.799Z,14.17
2019-05-22T10:09:30.945Z,14.17
2019-05-22T10:12:02.683Z,14.21
2019-05-22T10:14:33.320Z,14.25
2019-05-22T10:17:03.756Z,14.26
2019-05-22T10:19:34.227Z,14.26
2019-05-22T10:22:05.480Z,14.29
2019-05-22T10:24:35.974Z,14.34
2019-05-22T10:27:07.965Z,14.42
2019-05-22T10:29:38.081Z,14.44
2019-05-22T10:32:08.616Z,14.45
2019-05-22T10:34:38.667Z,14.51
2019-05-22T10:37:10.730Z,14.62
2019-05-22T10:39:41.271Z,14.70
2019-05-22T10:42:11.978Z,14.78
2019-05-22T10:44:41.925Z,14.95
2019-05-22T10:47:11.888Z,15.14
2019-05-22T10:49:42.610Z,15.36
2019-05-22T10:52:12.569Z,15.49
2019-05-22T10:54:42.524Z,15.63
2019-05-22T10:57:13.063Z,15.72
2019-05-22T10:59:42.104Z,15.84
2019-05-22T11:02:12.743Z,15.99
2019-05-22T11:04:43.874Z,16.06
2019-05-22T11:07:14.202Z,16.23
2019-05-22T11:09:44.676Z,16.37
2019-05-22T11:12:15.402Z,16.59
2019-05-22T11:14:47.056Z,16.80
2019-05-22T11:17:17.521Z,16.92
2019-05-22T11:19:47.770Z,16.98
2019-05-22T11:22:18.626Z,17.08
2019-05-22T11:24:48.866Z,17.16
2019-05-22T11:27:19.142Z,17.32
2019-05-22T11:29:49.986Z,17.42
2019-05-22T11:32:20.216Z,17.57
2019-05-22T11:34:50.156Z,17.72
2019-05-22T11:37:20.848Z,17.84
2019-05-22T11:39:51.077Z,17.92
2019-05-22T11:42:21.764Z,17.97
2019-05-22T11:44:52.697Z,18.06
2019-05-22T11:47:23.161Z,18.15
2019-05-22T11:49:54.439Z,18.29
2019-05-22T11:52:24.780Z,18.33
2019-05-22T11:54:55.177Z,18.45
2019-05-22T11:57:25.606Z,18.61
2019-05-22T11:59:55.948Z,18.76
2019-05-22T12:02:26.372Z,18.89
2019-05-22T12:04:57.591Z,19.02
2019-05-22T12:07:28.537Z,19.10
2019-05-22T12:09:58.991Z,19.17
2019-05-22T12:12:30.238Z,19.30
2019-05-22T12:15:01.182Z,19.38
2019-05-22T12:17:38.300Z,19.54
2019-05-22T12:20:04.836Z,19.63
2019-05-22T12:22:34.838Z,19.69
2019-05-22T12:25:05.318Z,19.79
2019-05-22T12:27:36.380Z,19.93
2019-05-22T12:30:07.512Z,20.02
2019-05-22T12:32:38.234Z,20.12
2019-05-22T12:35:08.305Z,20.17
2019-05-22T12:37:38.643Z,20.19
2019-05-22T12:40:11.839Z,20.12
2019-05-22T12:42:41.991Z,20.17
2019-05-22T12:45:13.889Z,20.18
2019-05-22T12:47:44.017Z,20.24
2019-05-22T12:50:16.819Z,20.39
2019-05-22T12:52:49.663Z,20.53
2019-05-22T12:55:20.512Z,20.72
2019-05-22T12:57:51.433Z,20.86
2019-05-22T13:00:25.747Z,20.93
2019-05-22T13:02:56.480Z,21.03
2019-05-22T13:05:27.567Z,21.14
2019-05-22T13:07:58.412Z,21.19
2019-05-22T13:10:29.161Z,21.22
2019-05-22T13:12:59.390Z,21.24
2019-05-22T13:15:30.661Z,21.27
2019-05-22T13:18:01.200Z,21.20
2019-05-22T13:20:42.388Z,21.25
2019-05-22T13:23:09.960Z,21.33
2019-05-22T13:25:42.282Z,21.38
2019-05-22T13:28:16.607Z,21.33
2019-05-22T13:30:51.040Z,21.42
2019-05-22T13:33:27.514Z,21.49
2019-05-22T13:35:58.095Z,21.47
2019-05-22T13:38:28.442Z,21.29
2019-05-22T13:40:58.988Z,21.33
2019-05-22T13:43:30.104Z,21.43
2019-05-22T13:46:00.872Z,21.50
2019-05-22T13:48:30.926Z,21.51
2019-05-22T13:51:01.983Z,21.63
2019-05-22T13:53:32.699Z,21.74
2019-05-22T13:56:04.534Z,21.53
2019-05-22T13:58:35.700Z,21.32
2019-05-22T14:01:06.065Z,21.15
2019-05-22T14:03:36.319Z,20.95
2019-05-22T14:06:06.860Z,21.01
2019-05-22T14:08:36.921Z,21.15
2019-05-22T14:11:08.387Z,21.29
2019-05-22T14:13:38.901Z,21.54
2019-05-22T14:16:09.543Z,21.78
2019-05-22T14:18:39.480Z,21.95
2019-05-22T14:21:09.638Z,21.94
2019-05-22T14:23:39.621Z,22.00
2019-05-22T14:26:09.908Z,22.09
2019-05-22T14:28:41.584Z,21.98
2019-05-22T14:31:11.629Z,21.78
2019-05-22T14:33:41.792Z,21.67
2019-05-22T14:36:12.193Z,21.67
2019-05-22T14:38:43.086Z,21.57
2019-05-22T14:41:14.696Z,21.37
2019-05-22T14:43:44.837Z,21.15
2019-05-22T14:46:15.566Z,20.96
2019-05-22T14:48:45.628Z,20.76
2019-05-22T14:51:16.410Z,20.57
2019-05-22T14:53:48.511Z,20.44
2019-05-22T14:56:19.537Z,20.34
2019-05-22T14:58:49.654Z,20.30
2019-05-22T15:01:21.122Z,20.36
2019-05-22T15:03:52.066Z,20.47
2019-05-22T15:06:22.495Z,20.47
2019-05-22T15:08:52.453Z,20.41
2019-05-22T15:11:22.405Z,20.35
2019-05-22T15:13:53.161Z,20.40
2019-05-22T15:16:23.439Z,20.63
2019-05-22T15:18:54.018Z,20.88
2019-05-22T15:21:24.712Z,21.10
2019-05-22T15:23:55.037Z,21.34
2019-05-22T15:26:25.274Z,21.45
2019-05-22T15:28:55.430Z,21.36
2019-05-22T15:31:25.458Z,21.35
2019-05-22T15:33:56.096Z,21.27
2019-05-22T15:36:27.023Z,21.24
2019-05-22T15:38:57.864Z,21.30
2019-05-22T15:41:28.495Z,21.41
2019-05-22T15:43:59.535Z,21.41
2019-05-22T15:46:32.725Z,21.28
2019-05-22T15:49:05.833Z,21.18
2019-05-22T15:51:37.223Z,21.22
2019-05-22T15:54:08.697Z,21.34
2019-05-22T15:56:40.046Z,21.43
2019-05-22T15:59:12.014Z,21.47
2019-05-22T16:01:42.842Z,21.49
2019-05-22T16:04:14.841Z,21.51
2019-05-22T16:06:48.078Z,21.48
2019-05-22T16:09:18.969Z,21.45
2019-05-22T16:11:51.958Z,21.41
2019-05-22T16:14:22.977Z,21.44
2019-05-22T16:16:53.955Z,21.41
2019-05-22T16:19:27.354Z,21.29
2019-05-22T16:22:01.841Z,21.26
2019-05-22T16:24:32.206Z,21.22
2019-05-22T16:27:02.380Z,21.14
2019-05-22T16:29:32.912Z,21.17
2019-05-22T16:32:05.946Z,21.01
2019-05-22T16:34:37.467Z,20.96
2019-05-22T16:37:07.903Z,20.97
2019-05-22T16:39:40.086Z,21.02
2019-05-22T16:42:10.625Z,21.05
2019-05-22T16:44:41.486Z,21.04
2019-05-22T16:47:12.858Z,20.91
2019-05-22T16:49:43.107Z,20.84
2019-05-22T16:52:15.437Z,20.72
2019-05-22T16:54:47.035Z,20.60
2019-05-22T16:57:17.764Z,20.51
2019-05-22T16:59:47.813Z,20.43
2019-05-22T17:02:18.930Z,20.40
2019-05-22T17:04:50.490Z,20.31
2019-05-22T17:07:21.210Z,20.25
2019-05-22T17:09:53.548Z,20.21
2019-05-22T17:12:25.579Z,20.22
2019-05-22T17:14:55.668Z,20.32
2019-05-22T17:17:27.093Z,20.43
2019-05-22T17:19:57.427Z,20.51
2019-05-22T17:22:27.982Z,20.52
2019-05-22T17:24:58.549Z,20.46
2019-05-22T17:27:29.899Z,20.40
2019-05-22T17:30:00.538Z,20.26
2019-05-22T17:32:31.358Z,20.26
2019-05-22T17:35:01.895Z,20.18
2019-05-22T17:37:33.692Z,20.13
2019-05-22T17:40:06.178Z,20.00
2019-05-22T17:42:37.172Z,19.92
2019-05-22T17:45:08.433Z,19.87
2019-05-22T17:47:38.390Z,19.83
2019-05-22T17:50:25.202Z,19.82
2019-05-22T17:52:40.968Z,19.80
2019-05-22T17:55:12.808Z,19.74
2019-05-22T17:57:43.507Z,19.71
2019-05-22T18:00:24.765Z,19.66
2019-05-22T18:02:54.854Z,19.61
2019-05-22T18:05:26.078Z,19.57
2019-05-22T18:07:56.549Z,19.52
2019-05-22T18:10:27.242Z,19.47
2019-05-22T18:12:57.466Z,19.43
2019-05-22T18:15:27.699Z,19.39
2019-05-22T18:17:58.138Z,19.33
2019-05-22T18:20:41.754Z,19.26
2019-05-22T18:23:01.292Z,19.17
2019-05-22T18:25:32.235Z,19.08
2019-05-22T18:28:05.051Z,19.01
2019-05-22T18:30:37.969Z,18.93
2019-05-22T18:33:08.031Z,18.87
2019-05-22T18:35:38.061Z,18.80
2019-05-22T18:38:08.107Z,18.76
2019-05-22T18:40:38.719Z,18.70
2019-05-22T18:43:09.213Z,18.65
2019-05-22T18:45:39.995Z,18.59
2019-05-22T18:48:10.241Z,18.54
2019-05-22T18:50:40.362Z,18.47
2019-05-22T18:53:10.318Z,18.38
2019-05-22T18:55:40.815Z,18.32
2019-05-22T18:58:10.839Z,18.26
2019-05-22T19:00:40.831Z,18.20
2019-05-22T19:03:10.970Z,18.12
2019-05-22T19:05:41.568Z,18.07
2019-05-22T19:08:12.453Z,18.03
2019-05-22T19:10:42.598Z,18.00
2019-05-22T19:13:14.624Z,17.96
2019-05-22T19:15:45.094Z,17.93
2019-05-22T19:18:15.351Z,17.91
2019-05-22T19:20:45.469Z,17.87
2019-05-22T19:23:15.593Z,17.86
2019-05-22T19:25:45.538Z,17.85
2019-05-22T19:28:16.136Z,17.86
2019-05-22T19:30:46.075Z,17.86
2019-05-22T19:33:15.989Z,17.88
2019-05-22T19:35:45.843Z,17.87
2019-05-22T19:38:16.155Z,17.85
2019-05-22T19:40:46.530Z,17.81
2019-05-22T19:43:17.127Z,17.81
2019-05-22T19:45:47.483Z,17.81
2019-05-22T19:48:18.112Z,17.80
2019-05-22T19:50:48.974Z,17.80
2019-05-22T19:53:20.066Z,17.79
2019-05-22T19:55:50.510Z,17.79
2019-05-22T19:58:21.998Z,17.80
2019-05-22T20:00:52.596Z,17.79
2019-05-22T20:03:25.384Z,17.78
2019-05-22T20:05:55.428Z,17.77
2019-05-22T20:08:26.267Z,17.78
2019-05-22T20:10:56.416Z,17.78
2019-05-22T20:13:26.666Z,17.76
2019-05-22T20:15:57.560Z,17.75
2019-05-22T20:18:27.485Z,17.72
2019-05-22T20:20:57.853Z,17.68
2019-05-22T20:23:36.203Z,17.64
2019-05-22T20:26:01.021Z,17.59
2019-05-22T20:28:31.209Z,17.53
2019-05-22T20:31:01.273Z,17.50
2019-05-22T20:33:31.891Z,17.45
2019-05-22T20:36:02.157Z,17.41
2019-05-22T20:38:32.379Z,17.35
2019-05-22T20:41:02.264Z,17.31
2019-05-22T20:43:33.944Z,17.28
2019-05-22T20:46:05.836Z,17.27
2019-05-22T20:48:37.255Z,17.25
2019-05-22T20:51:09.700Z,17.21
2019-05-22T20:53:53.577Z,17.17
2019-05-22T20:56:13.866Z,17.12
2019-05-22T20:58:44.769Z,17.10
2019-05-22T21:01:15.117Z,17.08
2019-05-22T21:03:45.222Z,17.04
2019-05-22T21:06:17.021Z,17.01
2019-05-22T21:08:47.259Z,16.99
2019-05-22T21:11:20.825Z,16.97
2019-05-22T21:13:51.255Z,16.93
2019-05-22T21:16:21.807Z,16.87
2019-05-22T21:18:54.480Z,16.80
2019-05-22T21:21:26.085Z,16.74
2019-05-22T21:24:09.569Z,16.68
2019-05-22T21:26:28.651Z,16.64
2019-05-22T21:28:58.652Z,16.61
2019-05-22T21:31:28.814Z,16.58
2019-05-22T21:33:58.753Z,16.55
2019-05-22T21:36:29.372Z,16.51
2019-05-22T21:39:00.090Z,16.51
2019-05-22T21:41:30.854Z,16.50
2019-05-22T21:44:01.021Z,16.50
2019-05-22T21:46:31.268Z,16.50
2019-05-22T21:49:01.580Z,16.49
2019-05-22T21:51:31.455Z,16.46
2019-05-22T21:54:01.705Z,16.44
2019-05-22T21:56:31.649Z,16.40
2019-05-22T21:59:01.584Z,16.37
2019-05-22T22:01:35.844Z,16.35
2019-05-22T22:04:20.935Z,16.34
2019-05-22T22:06:53.742Z,16.30
2019-05-22T22:09:25.785Z,16.28
2019-05-22T22:11:57.047Z,16.25
2019-05-22T22:14:27.413Z,16.19
2019-05-22T22:16:57.633Z,16.15
2019-05-22T22:19:30.311Z,16.12
2019-05-22T22:22:00.760Z,16.09
2019-05-22T22:24:31.771Z,16.05
2019-05-22T22:27:02.217Z,16.02
2019-05-22T22:29:32.984Z,16.02
2019-05-22T22:32:04.869Z,16.01
2019-05-22T22:34:53.883Z,15.96
2019-05-22T22:37:24.706Z,15.94
2019-05-22T22:39:56.606Z,15.94
2019-05-22T22:42:29.493Z,15.95
2019-05-22T22:44:59.814Z,15.92
2019-05-22T22:47:41.512Z,15.91
2019-05-22T22:50:12.915Z,15.85
2019-05-22T22:52:44.993Z,15.84
2019-05-22T22:55:17.369Z,15.85
2019-05-22T22:57:49.518Z,15.86
2019-05-22T23:00:26.844Z,15.86
2019-05-22T23:02:59.148Z,15.85
2019-05-22T23:05:29.091Z,15.83
2019-05-22T23:08:00.224Z,15.80
2019-05-22T23:10:31.275Z,15.78
2019-05-22T23:13:01.563Z,15.76
2019-05-22T23:15:31.655Z,15.75
2019-05-22T23:18:03.422Z,15.74
2019-05-22T23:20:31.928Z,15.71
2019-05-22T23:23:00.494Z,15.70
2019-05-22T23:25:32.611Z,15.65
2019-05-22T23:28:04.644Z,15.59
2019-05-22T23:30:34.960Z,15.59
2019-05-22T23:33:07.006Z,15.58
2019-05-22T23:35:37.333Z,15.59
2019-05-22T23:38:08.867Z,15.56
2019-05-22T23:40:38.896Z,15.51
2019-05-22T23:43:10.028Z,15.46
2019-05-22T23:45:40.618Z,15.44
2019-05-22T23:48:14.254Z,15.43
2019-05-22T23:50:44.490Z,15.43
2019-05-22T23:53:53.188Z,15.40
2019-05-22T23:56:25.719Z,15.37
2019-05-22T23:58:58.379Z,15.34
